Time;durP1;ratioP1;P1;durP2;ratioP2;P2;SDS_P1;SDS_P2;PMS_P1;PMS_P2;Temp;Humidity;BMP_temperature;BMP_pressure;BME280_temperature;BME280_humidity;BME280_pressure;Samples;Min_cycle;Max_cycle;Signal;HPM_P1;HPM_P2
2022/06/26 00:01:00;;;;;;;1.65;1.50;;;;;;;21.19;74.45;98512.78;4363579;32;20197;-71
2022/06/26 00:03:28;;;;;;;3.03;1.65;;;;;;;21.07;74.80;98510.00;4363586;32;20087;-71
2022/06/26 00:05:55;;;;;;;2.25;1.48;;;;;;;21.00;74.92;98514.53;4363859;32;20103;-71
2022/06/26 00:08:25;;;;;;;2.22;1.30;;;;;;;20.88;75.26;98530.34;4363255;32;20107;-71
2022/06/26 00:10:53;;;;;;;6.82;1.50;;;;;;;20.63;76.08;98532.81;4364313;32;20461;-71
2022/06/26 00:13:20;;;;;;;1.70;1.60;;;;;;;20.65;76.12;98529.94;4365346;32;20095;-71
2022/06/26 00:15:47;;;;;;;2.10;1.65;;;;;;;20.19;77.20;98542.28;4365421;32;20107;-71
2022/06/26 00:18:16;;;;;;;1.85;1.37;;;;;;;20.01;78.35;98545.53;4365239;32;20083;-71
2022/06/26 00:20:43;;;;;;;1.52;1.42;;;;;;;20.00;78.64;98538.59;4352241;32;20083;-72
2022/06/26 00:23:10;;;;;;;1.85;1.35;;;;;;;20.07;78.43;98541.25;4365494;32;20163;-71
2022/06/26 00:25:38;;;;;;;5.28;1.90;;;;;;;19.94;78.94;98529.59;4365232;32;20098;-71
2022/06/26 00:28:05;;;;;;;2.00;1.73;;;;;;;20.05;78.69;98538.00;4365322;32;20083;-71
2022/06/26 00:30:33;;;;;;;7.05;2.17;;;;;;;19.76;79.56;98537.34;4365247;32;20235;-71
2022/06/26 00:33:00;;;;;;;9.00;2.12;;;;;;;20.15;78.09;98536.56;4351813;32;20099;-71
2022/06/26 00:35:27;;;;;;;2.20;1.90;;;;;;;19.92;78.88;98539.59;4365056;32;20091;-71
2022/06/26 00:37:54;;;;;;;2.80;1.60;;;;;;;19.91;79.41;98538.00;4365198;32;20087;-71
2022/06/26 00:40:22;;;;;;;2.67;1.95;;;;;;;19.99;79.50;98537.78;4365151;32;20125;-71
2022/06/26 00:42:49;;;;;;;2.53;1.80;;;;;;;19.89;79.31;98532.03;4365130;32;20464;-71
2022/06/26 00:45:16;;;;;;;4.68;2.08;;;;;;;20.04;79.03;98539.81;4365256;32;20102;-72
2022/06/26 00:47:43;;;;;;;1.85;1.40;;;;;;;19.85;79.53;98546.78;4365181;32;20091;-71
2022/06/26 00:50:11;;;;;;;2.15;1.80;;;;;;;19.34;80.29;98548.03;4365147;32;20079;-71
2022/06/26 00:52:39;;;;;;;4.95;1.92;;;;;;;19.19;80.48;98558.00;4365093;32;20107;-71
2022/06/26 00:55:08;;;;;;;3.15;2.08;;;;;;;19.10;81.30;98554.69;4365395;32;20099;-71
2022/06/26 00:57:36;;;;;;;5.30;2.30;;;;;;;19.14;81.47;98555.94;4347670;32;132307;-71
2022/06/26 01:00:06;;;;;;;2.25;1.98;;;;;;;18.91;83.12;98561.53;4365063;32;20067;-71
2022/06/26 01:02:33;;;;;;;5.82;2.47;;;;;;;18.80;84.71;98554.91;4365047;32;20134;-71
2022/06/26 01:05:01;;;;;;;3.08;2.50;;;;;;;18.74;85.01;98556.53;4364860;32;20121;-71
2022/06/26 01:07:28;;;;;;;3.47;2.20;;;;;;;18.86;85.17;98559.47;4365027;32;20182;-71
2022/06/26 01:09:55;;;;;;;2.70;2.50;;;;;;;18.76;85.61;98562.44;4365159;32;20079;-71
2022/06/26 01:12:22;;;;;;;2.80;2.15;;;;;;;18.87;84.96;98561.13;4365076;32;20773;-71
2022/06/26 01:14:53;;;;;;;2.47;2.28;;;;;;;18.78;85.03;98563.06;4364941;32;20571;-71
2022/06/26 01:17:20;;;;;;;4.40;2.40;;;;;;;18.76;84.84;98564.28;4351690;32;20122;-71
2022/06/26 01:19:48;;;;;;;2.30;2.10;;;;;;;18.85;84.74;98563.16;4364910;32;20224;-71
2022/06/26 01:22:15;;;;;;;3.42;2.58;;;;;;;18.85;85.36;98572.91;4364199;32;20170;-71
2022/06/26 01:24:43;;;;;;;2.67;2.42;;;;;;;18.71;86.88;98572.00;4365176;32;20102;-71
2022/06/26 01:27:10;;;;;;;3.92;2.78;;;;;;;18.86;86.56;98572.72;4364903;32;20172;-71
2022/06/26 01:29:37;;;;;;;2.75;2.45;;;;;;;18.66;87.87;98566.47;4364992;32;20100;-71
2022/06/26 01:32:05;;;;;;;4.28;2.70;;;;;;;18.64;87.86;98564.00;4365028;32;20134;-71
2022/06/26 01:34:33;;;;;;;3.42;2.80;;;;;;;18.62;88.55;98566.03;4351486;32;20103;-71
2022/06/26 01:37:01;;;;;;;4.07;2.25;;;;;;;18.74;87.88;98563.66;4364994;32;20087;-71
2022/06/26 01:39:29;;;;;;;3.85;2.58;;;;;;;18.65;87.74;98567.47;4351789;32;20117;-71
2022/06/26 01:41:57;;;;;;;2.72;2.37;;;;;;;18.85;87.40;98573.78;4364820;32;20707;-71
2022/06/26 01:44:24;;;;;;;5.05;3.03;;;;;;;18.69;87.87;98566.88;4351783;32;20479;-71
2022/06/26 01:46:52;;;;;;;2.80;2.50;;;;;;;18.54;88.94;98561.69;4364798;32;20127;-71
2022/06/26 01:49:21;;;;;;;2.97;2.58;;;;;;;18.51;89.64;98561.25;4365081;32;20083;-71
2022/06/26 01:51:48;;;;;;;2.60;2.40;;;;;;;18.33;90.97;98569.69;4364911;32;20166;-71
2022/06/26 01:54:17;;;;;;;2.97;2.67;;;;;;;18.36;91.03;98561.34;4365109;32;20102;-71
2022/06/26 01:56:45;;;;;;;6.43;2.78;;;;;;;18.37;91.61;98558.50;4364875;32;20088;-71
2022/06/26 01:59:12;;;;;;;3.90;2.90;;;;;;;18.52;90.94;98557.59;4364648;32;20114;-71
2022/06/26 02:01:40;;;;;;;3.97;2.97;;;;;;;18.57;90.92;98565.78;4364967;32;20134;-71
2022/06/26 02:04:07;;;;;;;3.95;3.03;;;;;;;18.46;91.54;98563.69;4351581;32;20477;-71
2022/06/26 02:06:35;;;;;;;3.40;3.00;;;;;;;18.53;91.24;98569.84;4364769;32;20497;-71
2022/06/26 02:09:03;;;;;;;4.68;3.42;;;;;;;18.60;90.82;98571.53;4364695;32;20109;-71
2022/06/26 02:14:23;;;;;;;3.25;2.95;;;;;;;18.56;92.32;98572.94;4364689;32;20153;-71
2022/06/26 02:16:56;;;;;;;5.28;3.22;;;;;;;18.62;90.86;98574.81;4364496;32;20442;-71
2022/06/26 02:19:25;;;;;;;3.25;2.90;;;;;;;19.00;88.93;98589.59;4364833;32;20075;-71
2022/06/26 02:21:52;;;;;;;3.03;2.75;;;;;;;19.27;87.40;98584.37;4364565;32;20121;-71
2022/06/26 02:24:19;;;;;;;3.92;3.28;;;;;;;18.57;89.58;98574.56;4364642;32;20091;-71
2022/06/26 02:26:46;;;;;;;4.97;3.10;;;;;;;19.40;87.31;98580.97;4364550;32;20157;-71
2022/06/26 02:29:14;;;;;;;6.28;3.20;;;;;;;19.25;87.54;98581.91;4364719;32;20083;-71
2022/06/26 02:31:41;;;;;;;3.30;3.00;;;;;;;18.25;93.38;98583.91;4364337;32;20110;-71
2022/06/26 02:34:08;;;;;;;3.85;3.17;;;;;;;18.26;93.29;98580.25;4364547;32;20126;-71
2022/06/26 02:36:36;;;;;;;3.25;2.80;;;;;;;18.17;93.94;98576.91;4364211;32;20149;-71
2022/06/26 02:39:03;;;;;;;3.47;3.08;;;;;;;18.40;93.54;98581.19;4364555;32;20091;-71
2022/06/26 02:41:30;;;;;;;4.28;3.05;;;;;;;18.36;94.54;98579.91;4364599;32;20107;-71
2022/06/26 02:43:57;;;;;;;4.80;3.22;;;;;;;18.30;94.81;98580.69;4364429;32;20138;-71
2022/06/26 02:46:26;;;;;;;3.45;2.80;;;;;;;18.57;93.43;98582.53;4364704;32;20110;-71
2022/06/26 02:48:54;;;;;;;5.07;3.20;;;;;;;18.72;92.76;98579.78;4364440;32;20204;-71
2022/06/26 02:51:22;;;;;;;3.60;3.25;;;;;;;18.58;93.22;98591.31;4364350;32;20111;-71
2022/06/26 02:53:49;;;;;;;3.92;3.30;;;;;;;18.52;94.09;98592.09;4364448;32;20120;-71
2022/06/26 02:56:16;;;;;;;4.18;3.60;;;;;;;19.43;89.67;98607.94;4364188;32;20079;-71
2022/06/26 02:58:43;;;;;;;4.87;4.20;;;;;;;19.14;90.54;98603.75;4364192;32;20449;-71
2022/06/26 03:01:12;;;;;;;5.50;4.50;;;;;;;19.13;91.17;98607.41;4364458;32;20453;-71
2022/06/26 03:03:39;;;;;;;6.12;4.30;;;;;;;19.03;91.44;98606.94;4364363;32;20210;-71
2022/06/26 03:06:08;;;;;;;4.62;4.03;;;;;;;19.11;91.18;98609.44;4364442;32;20121;-71
2022/06/26 03:08:36;;;;;;;4.15;3.50;;;;;;;19.21;90.57;98612.53;4364300;32;20075;-71
2022/06/26 03:11:03;;;;;;;4.80;4.25;;;;;;;19.23;90.36;98618.50;4364132;32;20091;-71
2022/06/26 03:13:30;;;;;;;6.32;4.18;;;;;;;19.42;89.76;98608.16;4364425;32;20571;-72
2022/06/26 03:15:57;;;;;;;6.40;4.55;;;;;;;19.40;89.64;98618.97;4364336;32;20146;-71
2022/06/26 03:18:25;;;;;;;6.35;4.37;;;;;;;19.47;89.34;98613.69;4364405;32;20091;-71
2022/06/26 03:20:54;;;;;;;4.93;3.97;;;;;;;19.49;89.32;98614.31;4364144;32;20125;-71
2022/06/26 03:24:00;;;;;;;5.45;3.80;;;;;;;19.58;88.76;98621.09;4363945;32;20421;-71
2022/06/26 03:26:08;;;;;;;5.90;3.95;;;;;;;19.69;88.11;98625.81;4364101;32;20091;-71
2022/06/26 03:28:35;;;;;;;6.78;4.12;;;;;;;19.88;86.07;98626.12;4364085;32;20079;-71
2022/06/26 03:31:03;;;;;;;5.68;3.95;;;;;;;19.78;86.42;98626.50;4363983;32;20166;-71
2022/06/26 03:33:31;;;;;;;5.37;3.67;;;;;;;19.38;88.08;98634.31;4364102;32;20437;-71
2022/06/26 03:35:58;;;;;;;4.60;3.83;;;;;;;19.73;86.55;98636.03;4363920;32;20476;-71
2022/06/26 03:38:26;;;;;;;4.95;4.15;;;;;;;19.70;86.94;98631.97;4363888;32;20417;-71
2022/06/26 03:40:53;;;;;;;6.97;4.53;;;;;;;19.72;86.88;98640.56;4363778;32;20107;-71
2022/06/26 03:43:20;;;;;;;4.43;3.97;;;;;;;19.92;85.83;98643.28;4364113;32;20094;-71
2022/06/26 03:45:47;;;;;;;4.32;3.80;;;;;;;19.98;84.92;98641.69;4363131;32;20095;-71
2022/06/26 03:48:15;;;;;;;6.47;3.97;;;;;;;20.10;84.75;98644.56;4363877;32;20105;-71
2022/06/26 03:50:42;;;;;;;4.72;3.40;;;;;;;20.25;83.54;98637.22;4363952;32;20449;-71
2022/06/26 03:53:10;;;;;;;3.10;2.78;;;;;;;20.22;83.68;98640.28;4363697;32;20121;-71
2022/06/26 03:55:38;;;;;;;4.68;2.62;;;;;;;20.20;83.46;98645.00;4363509;32;20562;-71
2022/06/26 03:58:06;;;;;;;3.12;2.85;;;;;;;20.28;83.06;98641.34;4363898;32;20095;-71
2022/06/26 04:00:34;;;;;;;5.32;2.83;;;;;;;20.28;82.73;98641.34;4363765;32;20445;-71
2022/06/26 04:03:03;;;;;;;4.57;3.37;;;;;;;20.37;82.70;98642.78;4363465;32;20162;-71
2022/06/26 04:05:31;;;;;;;3.05;2.67;;;;;;;20.20;83.50;98653.78;4363529;32;20233;-71
2022/06/26 04:07:59;;;;;;;2.95;2.65;;;;;;;20.35;83.22;98650.94;4363583;32;20635;-71
2022/06/26 04:10:26;;;;;;;2.87;2.58;;;;;;;20.29;83.59;98654.44;4363512;32;20126;-71
2022/06/26 04:12:53;;;;;;;5.68;2.70;;;;;;;20.61;82.51;98649.31;4363698;32;20095;-71
2022/06/26 04:15:21;;;;;;;5.85;2.90;;;;;;;20.68;81.87;98649.34;4363468;32;20091;-71
2022/06/26 04:17:48;;;;;;;3.08;2.78;;;;;;;20.66;82.08;98644.22;4363544;32;20110;-71
2022/06/26 04:20:16;;;;;;;2.60;2.40;;;;;;;20.99;80.60;98645.22;4363341;32;20121;-71
2022/06/26 04:22:43;;;;;;;2.75;2.53;;;;;;;21.40;78.13;98644.91;4363480;32;20094;-71
2022/06/26 04:25:10;;;;;;;3.12;2.17;;;;;;;21.48;77.15;98641.19;4363233;32;20122;-71
2022/06/26 04:27:38;;;;;;;3.35;2.10;;;;;;;21.49;76.84;98642.84;4363272;32;20154;-71
2022/06/26 04:30:06;;;;;;;2.53;2.20;;;;;;;21.70;76.21;98636.41;4363378;32;20123;-71
2022/06/26 04:32:34;;;;;;;2.15;1.80;;;;;;;21.76;74.96;98643.56;4363163;32;20440;-71
2022/06/26 04:35:06;;;;;;;2.10;1.73;;;;;;;22.01;74.26;98644.66;4363415;32;20095;-71
2022/06/26 04:37:34;;;;;;;6.12;1.92;;;;;;;21.93;74.34;98638.53;4362867;32;20378;-71
2022/06/26 04:40:04;;;;;;;2.05;1.85;;;;;;;22.05;73.90;98646.69;4363219;32;20098;-71
2022/06/26 04:42:32;;;;;;;2.72;1.42;;;;;;;22.32;72.91;98641.22;4363266;32;20103;-71
2022/06/26 04:44:59;;;;;;;1.73;1.60;;;;;;;22.37;72.62;98651.22;4362951;32;20103;-71
2022/06/26 04:47:27;;;;;;;1.80;1.70;;;;;;;22.52;72.10;98654.41;4363239;32;20620;-71
2022/06/26 04:49:54;;;;;;;2.08;1.87;;;;;;;22.61;71.58;98649.63;4363162;32;20385;-71
2022/06/26 04:52:22;;;;;;;1.75;1.65;;;;;;;22.66;71.75;98660.44;4363111;32;20449;-71
2022/06/26 04:54:50;;;;;;;2.28;2.00;;;;;;;22.78;71.59;98657.88;4362806;32;20087;-71
2022/06/26 04:57:18;;;;;;;3.03;2.40;;;;;;;22.73;70.95;98657.72;4356981;32;20083;-71
2022/06/26 04:59:46;;;;;;;3.75;1.90;;;;;;;22.66;70.86;98657.78;4365295;32;20643;-72
2022/06/26 05:02:14;;;;;;;2.12;1.92;;;;;;;22.64;71.33;98657.19;4365098;32;20207;-71
2022/06/26 05:04:41;;;;;;;2.67;2.12;;;;;;;22.42;71.74;98659.41;4365253;32;20090;-72
2022/06/26 05:07:10;;;;;;;2.15;1.95;;;;;;;22.55;70.86;98655.81;4365231;32;20106;-72
2022/06/26 05:09:37;;;;;;;2.47;1.87;;;;;;;22.91;70.48;98656.94;4364996;32;20106;-71
2022/06/26 05:12:05;;;;;;;2.17;1.98;;;;;;;23.19;68.40;98656.47;4365332;32;20254;-71
2022/06/26 05:14:32;;;;;;;3.08;2.08;;;;;;;23.33;67.84;98654.47;4365145;32;20095;-71
2022/06/26 05:17:03;;;;;;;2.10;1.90;;;;;;;23.53;66.99;98660.44;4365127;32;20086;-71
2022/06/26 05:19:31;;;;;;;2.70;2.10;;;;;;;23.41;66.94;98664.06;4365113;32;20125;-71
2022/06/26 05:21:59;;;;;;;4.00;2.10;;;;;;;23.54;66.72;98662.06;4364976;32;20124;-71
2022/06/26 05:24:32;;;;;;;2.40;2.10;;;;;;;23.85;65.85;98657.59;4365247;32;20086;-71
2022/06/26 05:27:00;;;;;;;1.83;1.70;;;;;;;24.11;64.78;98660.13;4364996;32;20154;-72
2022/06/26 05:29:29;;;;;;;2.30;2.10;;;;;;;23.78;65.49;98664.84;4365059;32;20409;-72
2022/06/26 05:31:56;;;;;;;2.40;2.00;;;;;;;23.38;66.56;98662.66;4364962;32;20154;-72
2022/06/26 05:34:24;;;;;;;2.40;1.58;;;;;;;23.51;66.37;98664.34;4364783;32;20091;-71
2022/06/26 05:36:51;;;;;;;1.80;1.70;;;;;;;23.54;66.92;98658.56;4365063;32;20098;-72
2022/06/26 05:39:20;;;;;;;2.17;1.98;;;;;;;23.57;66.37;98666.13;4359199;32;20125;-71
2022/06/26 05:41:47;;;;;;;2.15;1.95;;;;;;;23.76;65.47;98672.28;4365112;32;20153;-72
2022/06/26 05:44:14;;;;;;;3.67;2.40;;;;;;;23.63;65.92;98673.25;4364850;32;20542;-72
2022/06/26 05:46:44;;;;;;;2.62;2.40;;;;;;;23.52;66.84;98666.81;4365054;32;20434;-71
2022/06/26 05:49:11;;;;;;;2.00;1.90;;;;;;;23.66;66.32;98675.47;4365050;32;20162;-72
2022/06/26 05:51:39;;;;;;;3.55;2.22;;;;;;;24.02;65.54;98675.69;4365066;32;20107;-71
2022/06/26 05:54:06;;;;;;;2.12;1.92;;;;;;;24.08;64.49;98675.56;4364998;32;20094;-72
2022/06/26 05:56:35;;;;;;;2.92;2.28;;;;;;;23.42;66.31;98674.53;4364827;32;20095;-71
2022/06/26 05:59:10;;;;;;;2.80;2.33;;;;;;;23.66;65.85;98672.81;4364636;32;20166;-72
2022/06/26 06:01:38;;;;;;;2.70;2.45;;;;;;;23.74;66.13;98671.69;4364946;32;20121;-71
2022/06/26 06:04:06;;;;;;;6.40;2.60;;;;;;;24.06;65.27;98671.53;4364709;32;20087;-72
2022/06/26 06:06:35;;;;;;;4.25;2.70;;;;;;;24.04;65.10;98677.09;4364564;32;20082;-72
2022/06/26 06:09:03;;;;;;;3.00;2.67;;;;;;;23.89;65.53;98674.81;4364146;32;20819;-71
2022/06/26 06:11:30;;;;;;;2.85;2.65;;;;;;;23.84;66.22;98674.63;4364917;32;20163;-71
2022/06/26 06:13:58;;;;;;;2.95;2.30;;;;;;;23.91;66.16;98680.75;4364914;32;20129;-71
2022/06/26 06:16:25;;;;;;;3.37;2.70;;;;;;;23.96;65.47;98669.38;4364797;32;20118;-71
2022/06/26 06:18:52;;;;;;;3.28;2.28;;;;;;;23.90;64.82;98675.63;4364955;32;20385;-71
2022/06/26 06:21:20;;;;;;;2.62;2.42;;;;;;;24.23;64.20;98680.53;4364794;32;20103;-71
2022/06/26 06:23:48;;;;;;;4.03;2.78;;;;;;;24.44;63.79;98683.72;4364794;32;20094;-72
2022/06/26 06:26:15;;;;;;;3.78;2.20;;;;;;;24.68;62.12;98689.97;4364465;32;20487;-71
2022/06/26 06:28:43;;;;;;;2.37;2.00;;;;;;;24.57;61.43;98688.88;4364687;32;20100;-71
2022/06/26 06:31:10;;;;;;;2.45;2.25;;;;;;;24.66;61.63;98696.59;4364801;32;20114;-71
2022/06/26 06:33:38;;;;;;;2.53;2.10;;;;;;;24.54;62.19;98697.37;4364309;32;20109;-72
2022/06/26 06:36:05;;;;;;;2.65;2.22;;;;;;;24.82;60.24;98703.16;4364757;32;20117;-72
2022/06/26 06:38:32;;;;;;;3.20;2.05;;;;;;;25.04;60.37;98698.88;4364501;32;20153;-71
2022/06/26 06:41:01;;;;;;;2.12;1.92;;;;;;;25.11;60.64;98710.25;4364788;32;20113;-71
2022/06/26 06:43:29;;;;;;;2.50;2.15;;;;;;;25.43;58.36;98703.75;4364828;32;20113;-72
2022/06/26 06:45:57;;;;;;;3.15;2.20;;;;;;;25.81;58.93;98702.38;4364635;32;20161;-72
2022/06/26 06:48:24;;;;;;;1.75;1.62;;;;;;;26.12;58.34;98713.75;4364394;32;20191;-71
2022/06/26 06:51:04;;;;;;;2.20;2.00;;;;;;;25.83;58.19;98716.38;4364425;32;20082;-71
2022/06/26 06:53:32;;;;;;;2.92;1.80;;;;;;;25.92;57.40;98722.16;4364636;32;20182;-71
2022/06/26 06:56:00;;;;;;;2.30;2.10;;;;;;;25.44;58.58;98719.59;4364650;32;20509;-72
2022/06/26 06:58:27;;;;;;;2.15;1.95;;;;;;;26.08;57.28;98726.00;4351190;32;20235;-71
2022/06/26 07:00:55;;;;;;;4.28;1.83;;;;;;;25.94;57.75;98723.56;4364550;32;20106;-72
2022/06/26 07:03:23;;;;;;;2.85;1.70;;;;;;;26.29;56.14;98724.53;4364259;32;20099;-72
2022/06/26 07:05:50;;;;;;;2.00;1.80;;;;;;;26.41;54.68;98727.16;4364283;32;20463;-72
2022/06/26 07:08:17;;;;;;;1.98;1.60;;;;;;;26.33;54.80;98729.16;4364276;32;20154;-72
2022/06/26 07:10:45;;;;;;;4.47;1.67;;;;;;;26.20;55.35;98724.09;4349424;33;20117;-72
2022/06/26 07:13:12;;;;;;;1.85;1.70;;;;;;;26.01;55.86;98731.50;4349333;33;20087;-72
2022/06/26 07:15:39;;;;;;;3.55;2.00;;;;;;;26.17;55.01;98725.38;4349314;33;20150;-72
2022/06/26 07:18:07;;;;;;;2.15;1.85;;;;;;;25.95;55.25;98725.22;4349218;33;20111;-72
2022/06/26 07:20:34;;;;;;;1.77;1.67;;;;;;;26.08;55.12;98728.69;4348360;33;20121;-72
2022/06/26 07:23:03;;;;;;;2.22;1.80;;;;;;;26.28;53.50;98729.06;4349469;33;20209;-72
2022/06/26 07:25:30;;;;;;;3.08;1.92;;;;;;;26.49;53.43;98727.53;4349534;33;20090;-72
2022/06/26 07:27:58;;;;;;;1.52;1.42;;;;;;;26.32;54.67;98722.16;4349515;33;20123;-72
2022/06/26 07:30:25;;;;;;;2.22;2.03;;;;;;;26.30;52.96;98721.59;4349550;33;20142;-72
2022/06/26 07:32:53;;;;;;;1.77;1.62;;;;;;;26.51;54.43;98721.94;4349369;33;20099;-72
2022/06/26 07:35:20;;;;;;;3.28;1.70;;;;;;;26.67;52.14;98729.22;4349407;33;20104;-72
2022/06/26 07:37:48;;;;;;;2.03;1.85;;;;;;;26.75;52.71;98728.00;4349205;33;20122;-72
2022/06/26 07:40:15;;;;;;;1.50;1.40;;;;;;;27.02;51.09;98722.78;4349396;33;20181;-72
2022/06/26 07:42:42;;;;;;;1.85;1.48;;;;;;;27.03;50.74;98724.44;4349310;33;20137;-72
2022/06/26 07:45:10;;;;;;;2.37;1.70;;;;;;;26.98;51.39;98727.03;4349095;33;20393;-72
2022/06/26 07:47:38;;;;;;;1.40;1.30;;;;;;;27.09;50.84;98718.06;4349238;33;20158;-72
2022/06/26 07:50:06;;;;;;;2.55;1.70;;;;;;;27.17;51.42;98724.09;4349297;33;20111;-72
2022/06/26 07:52:33;;;;;;;1.75;1.60;;;;;;;27.11;51.15;98719.69;4348852;33;20103;-72
2022/06/26 07:55:00;;;;;;;4.40;1.55;;;;;;;26.93;52.76;98716.19;4349021;33;20079;-72
2022/06/26 07:57:28;;;;;;;1.40;1.20;;;;;;;27.06;51.75;98723.94;4348785;33;20095;-72
2022/06/26 07:59:55;;;;;;;3.20;1.40;;;;;;;27.22;49.53;98721.47;4348717;33;20103;-72
2022/06/26 08:02:22;;;;;;;2.70;1.35;;;;;;;27.08;51.13;98719.13;4348727;33;20091;-72
2022/06/26 08:04:50;;;;;;;1.40;1.10;;;;;;;27.29;49.30;98716.72;4348781;33;20083;-72
2022/06/26 08:07:17;;;;;;;1.70;1.60;;;;;;;27.60;47.88;98719.84;4348986;33;20150;-72
2022/06/26 08:09:46;;;;;;;1.35;1.25;;;;;;;27.41;48.36;98717.47;4357646;32;20164;-72
2022/06/26 08:12:13;;;;;;;1.35;1.00;;;;;;;27.62;48.31;98721.22;4363869;32;20118;-72
2022/06/26 08:14:41;;;;;;;1.33;1.05;;;;;;;27.70;46.07;98721.88;4363811;32;20460;-72
2022/06/26 08:17:08;;;;;;;1.83;1.35;;;;;;;27.73;45.54;98716.78;4363300;32;20162;-72
2022/06/26 08:19:35;;;;;;;1.50;0.90;;;;;;;27.55;45.35;98725.16;4363423;32;20149;-72
2022/06/26 08:22:03;;;;;;;3.47;1.50;;;;;;;27.42;43.38;98721.78;4363456;32;20103;-72
2022/06/26 08:24:31;;;;;;;1.30;1.20;;;;;;;27.60;46.23;98717.16;4363359;32;20091;-72
2022/06/26 08:27:00;;;;;;;1.40;1.10;;;;;;;27.73;46.70;98715.97;4363240;32;20115;-72
2022/06/26 08:29:28;;;;;;;3.15;1.10;;;;;;;27.70;44.46;98714.59;4363256;32;20165;-72
2022/06/26 08:31:55;;;;;;;1.40;0.82;;;;;;;27.45;45.67;98720.47;4364103;32;20091;-72
2022/06/26 08:34:23;;;;;;;1.10;1.00;;;;;;;27.62;45.59;98721.22;4365392;32;20462;-72
2022/06/26 08:36:52;;;;;;;1.10;1.00;;;;;;;28.56;43.14;98723.88;4365298;32;20133;-72
2022/06/26 08:39:20;;;;;;;1.77;1.30;;;;;;;28.50;43.32;98731.09;4365309;32;20125;-72
2022/06/26 08:41:48;;;;;;;1.17;0.95;;;;;;;28.07;44.79;98727.44;4365254;32;20550;-72
2022/06/26 08:44:15;;;;;;;1.17;1.08;;;;;;;28.20;43.86;98728.09;4365212;32;20113;-72
2022/06/26 08:46:44;;;;;;;1.60;1.20;;;;;;;28.21;43.89;98730.56;4365563;32;20103;-72
2022/06/26 08:49:18;;;;;;;1.17;1.08;;;;;;;28.20;43.89;98728.91;4365049;32;20096;-72
2022/06/26 08:51:47;;;;;;;0.77;0.77;;;;;;;28.13;44.39;98731.81;4365183;32;20204;-72
2022/06/26 08:54:15;;;;;;;1.92;1.30;;;;;;;28.04;42.42;98727.94;4365070;32;20445;-72
2022/06/26 08:56:46;;;;;;;1.67;1.08;;;;;;;28.51;42.95;98726.53;4365182;32;20495;-72
2022/06/26 08:59:14;;;;;;;2.67;1.23;;;;;;;29.36;42.36;98726.66;4365199;32;20449;-72
2022/06/26 09:01:43;;;;;;;1.12;1.02;;;;;;;28.79;41.92;98721.94;4364985;32;20158;-72
2022/06/26 09:04:11;;;;;;;1.42;0.98;;;;;;;28.85;41.41;98724.41;4365090;32;20530;-72
2022/06/26 09:06:40;;;;;;;2.20;1.02;;;;;;;28.69;43.44;98722.66;4365427;32;20688;-72
2022/06/26 09:09:25;;;;;;;1.08;0.90;;;;;;;28.52;42.78;98727.34;4364901;32;20146;-72
2022/06/26 09:11:54;;;;;;;2.03;1.37;;;;;;;28.23;43.35;98722.22;4365123;32;20160;-72
2022/06/26 09:14:23;;;;;;;1.23;1.10;;;;;;;28.39;42.61;98728.56;4365018;32;20142;-72
2022/06/26 09:16:52;;;;;;;0.90;0.90;;;;;;;28.76;41.72;98717.06;4364995;32;20096;-72
2022/06/26 09:19:23;;;;;;;3.45;1.30;;;;;;;29.15;41.78;98719.50;4364925;32;20182;-72
2022/06/26 09:21:52;;;;;;;1.35;1.02;;;;;;;29.33;41.25;98721.78;4365080;32;20129;-72
2022/06/26 09:24:21;;;;;;;2.03;1.10;;;;;;;28.92;41.14;98721.50;4358940;32;20103;-72
2022/06/26 09:27:14;;;;;;;1.42;0.80;;;;;;;28.83;41.15;98721.16;4365037;32;20442;-72
2022/06/26 09:29:48;;;;;;;6.95;2.20;;;;;;;28.78;40.71;98726.53;4364980;32;20113;-72
2022/06/26 09:32:16;;;;;;;3.62;1.10;;;;;;;29.13;40.55;98725.16;4351514;32;20224;-72
2022/06/26 09:34:46;;;;;;;1.62;0.73;;;;;;;29.07;40.78;98723.50;4364888;32;20084;-72
2022/06/26 09:37:14;;;;;;;1.65;0.93;;;;;;;29.22;36.28;98719.28;4364798;32;20095;-72
2022/06/26 09:40:03;;;;;;;1.73;0.77;;;;;;;29.23;36.73;98713.63;4364942;32;20094;-72
2022/06/26 09:42:34;;;;;;;0.95;0.90;;;;;;;29.64;35.84;98723.81;4364477;32;20138;-72
2022/06/26 09:45:03;;;;;;;1.37;1.08;;;;;;;29.36;36.43;98720.47;4364481;32;20098;-72
2022/06/26 09:47:35;;;;;;;1.10;0.90;;;;;;;28.96;36.71;98727.97;4364833;32;20095;-72
2022/06/26 09:50:07;;;;;;;1.00;0.90;;;;;;;29.21;37.21;98718.47;4364949;32;20130;-72
2022/06/26 09:52:35;;;;;;;3.60;1.25;;;;;;;29.70;36.51;98715.47;4364854;32;20083;-72
2022/06/26 09:55:04;;;;;;;0.70;0.70;;;;;;;29.82;34.41;98717.97;4364690;32;20170;-72
2022/06/26 09:57:32;;;;;;;0.98;0.88;;;;;;;30.36;34.84;98715.97;4364674;32;20090;-72
2022/06/26 10:00:01;;;;;;;1.87;1.20;;;;;;;30.57;34.80;98717.62;4364745;32;20449;-72
2022/06/26 10:08:32;;;;;;;1.15;0.90;;;;;;;30.37;33.91;98720.25;4298801;33;20144;-72
2022/06/26 10:11:01;;;;;;;1.67;0.77;;;;;;;30.88;33.37;98714.09;4303845;33;20176;-72
2022/06/26 10:13:31;;;;;;;2.35;1.10;;;;;;;30.51;33.57;98720.56;4303598;33;20159;-72
2022/06/26 10:16:35;;;;;;;2.08;0.95;;;;;;;30.78;34.59;98710.31;4303637;33;20575;-72
2022/06/26 10:19:15;;;;;;;2.28;1.10;;;;;;;30.99;33.69;98702.19;4303498;33;20101;-72
2022/06/26 10:21:42;;;;;;;1.08;0.98;;;;;;;31.01;35.41;98704.63;4303917;33;20080;-72
2022/06/26 10:24:09;;;;;;;0.95;0.90;;;;;;;31.39;33.21;98705.09;4303602;33;20176;-72
2022/06/26 10:26:37;;;;;;;2.08;1.00;;;;;;;31.54;33.59;98702.34;4303396;33;20103;-72
2022/06/26 10:29:07;;;;;;;3.17;1.10;;;;;;;31.46;34.64;98701.00;4303639;33;20116;-72
2022/06/26 10:31:49;;;;;;;1.40;0.90;;;;;;;31.57;34.10;98701.81;4303764;33;20128;-72
2022/06/26 10:34:24;;;;;;;1.45;1.00;;;;;;;31.35;34.52;98695.91;4303539;33;20629;-72
2022/06/26 10:37:04;;;;;;;1.30;0.93;;;;;;;31.58;34.69;98691.78;4303815;33;20144;-72
2022/06/26 10:39:49;;;;;;;1.95;1.00;;;;;;;30.82;35.29;98697.06;4333571;32;20099;-72
2022/06/26 10:45:09;;;;;;;2.40;1.70;;;;;;;30.97;34.76;98705.16;4364525;32;20083;-72
2022/06/26 10:47:45;;;;;;;1.77;1.08;;;;;;;30.83;35.12;98708.69;4364387;32;20087;-72
2022/06/26 10:50:37;;;;;;;1.98;1.10;;;;;;;30.40;35.60;98700.84;4351259;32;20746;-72
2022/06/26 10:53:14;;;;;;;1.15;1.05;;;;;;;30.35;35.55;98692.72;4364455;32;20126;-72
2022/06/26 10:55:43;;;;;;;1.23;1.00;;;;;;;30.00;36.49;98697.78;4364432;32;20134;-72
2022/06/26 10:58:17;;;;;;;3.03;1.08;;;;;;;30.17;35.78;98691.34;4364489;32;20099;-72
2022/06/26 11:00:44;;;;;;;1.58;1.25;;;;;;;30.01;36.97;98693.19;4364352;32;20417;-72
2022/06/26 11:03:14;;;;;;;2.10;1.10;;;;;;;30.34;36.87;98697.31;4364210;32;20113;-72
2022/06/26 11:05:50;;;;;;;1.25;1.15;;;;;;;31.14;37.48;98696.78;4364321;32;20110;-72
2022/06/26 11:08:47;;;;;;;2.33;1.00;;;;;;;31.15;34.77;98689.47;4364383;32;20113;-71
2022/06/26 11:11:20;;;;;;;3.95;1.23;;;;;;;31.28;34.36;98690.75;4364150;32;20099;-72
2022/06/26 11:13:59;;;;;;;1.52;1.10;;;;;;;31.57;35.07;98692.84;4364263;32;20117;-72
2022/06/26 11:16:41;;;;;;;2.50;1.05;;;;;;;32.18;33.62;98689.03;4364323;32;20106;-72
2022/06/26 11:19:24;;;;;;;1.62;1.15;;;;;;;32.46;32.91;98689.37;4364275;32;20076;-72
2022/06/26 11:22:09;;;;;;;1.67;1.05;;;;;;;32.13;32.73;98681.75;4364310;32;20087;-72
2022/06/26 11:24:48;;;;;;;1.80;1.30;;;;;;;32.22;33.01;98687.41;4350747;32;20110;-72
2022/06/26 11:27:26;;;;;;;1.40;1.00;;;;;;;32.18;32.22;98689.03;4351644;32;20430;-72
2022/06/26 11:29:54;;;;;;;1.17;0.80;;;;;;;31.73;33.32;98689.00;4363820;32;20098;-72
2022/06/26 11:32:22;;;;;;;1.92;1.20;;;;;;;31.39;33.66;98694.28;4363961;32;20181;-72
2022/06/26 11:34:54;;;;;;;2.12;1.17;;;;;;;31.78;34.24;98691.69;4363976;32;20095;-72
2022/06/26 11:37:36;;;;;;;0.90;0.90;;;;;;;32.55;32.62;98693.09;4364125;32;20432;-72
2022/06/26 11:40:17;;;;;;;0.95;0.93;;;;;;;33.23;30.92;98692.25;4363911;32;20474;-72
2022/06/26 11:42:45;;;;;;;2.37;0.90;;;;;;;33.81;31.72;98684.22;4363940;32;20103;-72
2022/06/26 11:45:26;;;;;;;1.62;1.10;;;;;;;34.28;29.16;98696.88;4363946;32;20164;-72
2022/06/26 11:47:54;;;;;;;3.35;1.15;;;;;;;34.70;30.14;98690.78;4363927;32;20141;-72
2022/06/26 11:50:22;;;;;;;1.20;1.10;;;;;;;35.30;29.20;98696.25;4350466;32;20083;-72
2022/06/26 11:52:57;;;;;;;1.75;1.23;;;;;;;34.71;27.53;98682.31;4363636;32;20155;-72
2022/06/26 11:55:25;;;;;;;1.73;1.23;;;;;;;35.02;27.72;98689.94;4363753;32;20086;-72